sensor_id;sensor_type;location;lat;lon;timestamp;P1;durP1;ratioP1;P2;durP2;ratioP2
39208;SDS011;24929;51.982;4.664;2022-12-10T00:00:37;51.92;;;24.52;;
39208;SDS011;24929;51.982;4.664;2022-12-10T00:03:02;41.83;;;22.42;;
39208;SDS011;24929;51.982;4.664;2022-12-10T00:05:28;55.72;;;25.13;;
39208;SDS011;24929;51.982;4.664;2022-12-10T00:07:53;49.70;;;24.48;;
39208;SDS011;24929;51.982;4.664;2022-12-10T00:10:19;54.05;;;25.60;;
39208;SDS011;24929;51.982;4.664;2022-12-10T00:12:44;48.03;;;25.15;;
39208;SDS011;24929;51.982;4.664;2022-12-10T00:15:09;46.35;;;23.50;;
39208;SDS011;24929;51.982;4.664;2022-12-10T00:17:35;48.70;;;25.45;;
39208;SDS011;24929;51.982;4.664;2022-12-10T00:20:01;60.53;;;27.65;;
39208;SDS011;24929;51.982;4.664;2022-12-10T00:22:26;58.47;;;28.63;;
39208;SDS011;24929;51.982;4.664;2022-12-10T00:24:51;58.72;;;28.45;;
39208;SDS011;24929;51.982;4.664;2022-12-10T00:27:17;64.13;;;28.60;;
39208;SDS011;24929;51.982;4.664;2022-12-10T00:29:43;60.80;;;28.50;;
39208;SDS011;24929;51.982;4.664;2022-12-10T00:32:08;56.13;;;28.73;;
39208;SDS011;24929;51.982;4.664;2022-12-10T00:34:34;70.38;;;30.98;;
39208;SDS011;24929;51.982;4.664;2022-12-10T00:36:59;62.25;;;28.60;;
39208;SDS011;24929;51.982;4.664;2022-12-10T00:39:26;59.95;;;28.90;;
39208;SDS011;24929;51.982;4.664;2022-12-10T00:41:52;73.30;;;31.38;;
39208;SDS011;24929;51.982;4.664;2022-12-10T00:44:17;56.70;;;30.85;;
39208;SDS011;24929;51.982;4.664;2022-12-10T00:46:43;70.05;;;29.67;;
39208;SDS011;24929;51.982;4.664;2022-12-10T00:49:09;61.28;;;29.83;;
39208;SDS011;24929;51.982;4.664;2022-12-10T00:51:35;66.45;;;30.10;;
39208;SDS011;24929;51.982;4.664;2022-12-10T00:54:00;63.38;;;28.55;;
39208;SDS011;24929;51.982;4.664;2022-12-10T00:56:27;60.33;;;28.48;;
39208;SDS011;24929;51.982;4.664;2022-12-10T00:58:54;50.13;;;26.88;;
39208;SDS011;24929;51.982;4.664;2022-12-10T01:06:21;51.65;;;26.55;;
39208;SDS011;24929;51.982;4.664;2022-12-10T01:08:49;56.67;;;28.30;;
39208;SDS011;24929;51.982;4.664;2022-12-10T01:11:17;75.22;;;31.35;;
39208;SDS011;24929;51.982;4.664;2022-12-10T01:13:45;52.30;;;27.55;;
39208;SDS011;24929;51.982;4.664;2022-12-10T01:16:12;67.38;;;30.15;;
39208;SDS011;24929;51.982;4.664;2022-12-10T01:18:39;64.95;;;29.10;;
39208;SDS011;24929;51.982;4.664;2022-12-10T01:21:06;63.15;;;31.80;;
39208;SDS011;24929;51.982;4.664;2022-12-10T01:23:37;61.00;;;30.67;;
39208;SDS011;24929;51.982;4.664;2022-12-10T01:26:07;61.60;;;32.38;;
39208;SDS011;24929;51.982;4.664;2022-12-10T01:28:36;65.88;;;29.63;;
39208;SDS011;24929;51.982;4.664;2022-12-10T01:31:03;68.53;;;33.22;;
39208;SDS011;24929;51.982;4.664;2022-12-10T01:33:34;60.28;;;31.63;;
39208;SDS011;24929;51.982;4.664;2022-12-10T01:36:04;68.40;;;30.27;;
39208;SDS011;24929;51.982;4.664;2022-12-10T01:38:37;65.05;;;30.40;;
39208;SDS011;24929;51.982;4.664;2022-12-10T01:41:03;70.60;;;32.40;;
39208;SDS011;24929;51.982;4.664;2022-12-10T01:43:53;64.30;;;31.75;;
39208;SDS011;24929;51.982;4.664;2022-12-10T01:46:27;66.63;;;31.10;;
39208;SDS011;24929;51.982;4.664;2022-12-10T01:48:55;55.38;;;32.00;;
39208;SDS011;24929;51.982;4.664;2022-12-10T01:51:21;65.75;;;32.47;;
39208;SDS011;24929;51.982;4.664;2022-12-10T01:53:48;56.75;;;31.20;;
39208;SDS011;24929;51.982;4.664;2022-12-10T01:56:15;59.53;;;30.27;;
39208;SDS011;24929;51.982;4.664;2022-12-10T01:58:42;64.72;;;32.97;;
39208;SDS011;24929;51.982;4.664;2022-12-10T02:01:13;62.33;;;28.33;;
39208;SDS011;24929;51.982;4.664;2022-12-10T02:03:56;55.08;;;29.58;;
39208;SDS011;24929;51.982;4.664;2022-12-10T02:15:42;66.70;;;29.52;;
39208;SDS011;24929;51.982;4.664;2022-12-10T02:17:56;61.17;;;29.73;;
39208;SDS011;24929;51.982;4.664;2022-12-10T02:20:36;48.50;;;26.67;;
39208;SDS011;24929;51.982;4.664;2022-12-10T02:23:07;55.10;;;28.85;;
39208;SDS011;24929;51.982;4.664;2022-12-10T02:28:17;68.90;;;29.85;;
39208;SDS011;24929;51.982;4.664;2022-12-10T02:30:48;67.50;;;32.22;;
39208;SDS011;24929;51.982;4.664;2022-12-10T02:33:17;51.28;;;29.10;;
39208;SDS011;24929;51.982;4.664;2022-12-10T02:35:45;70.75;;;28.85;;
39208;SDS011;24929;51.982;4.664;2022-12-10T02:38:16;59.97;;;25.08;;
39208;SDS011;24929;51.982;4.664;2022-12-10T02:40:48;98.38;;;27.60;;
39208;SDS011;24929;51.982;4.664;2022-12-10T02:43:18;62.13;;;25.75;;
39208;SDS011;24929;51.982;4.664;2022-12-10T02:45:46;62.38;;;26.17;;
39208;SDS011;24929;51.982;4.664;2022-12-10T02:48:13;79.15;;;24.67;;
39208;SDS011;24929;51.982;4.664;2022-12-10T02:50:39;106.20;;;26.67;;
39208;SDS011;24929;51.982;4.664;2022-12-10T02:53:05;60.05;;;20.80;;
39208;SDS011;24929;51.982;4.664;2022-12-10T02:55:33;123.55;;;24.83;;
39208;SDS011;24929;51.982;4.664;2022-12-10T02:58:32;88.13;;;25.52;;
39208;SDS011;24929;51.982;4.664;2022-12-10T03:01:06;67.10;;;24.15;;
39208;SDS011;24929;51.982;4.664;2022-12-10T03:04:00;55.47;;;20.42;;
39208;SDS011;24929;51.982;4.664;2022-12-10T03:06:33;67.53;;;24.52;;
39208;SDS011;24929;51.982;4.664;2022-12-10T03:09:07;44.40;;;17.83;;
39208;SDS011;24929;51.982;4.664;2022-12-10T03:11:36;81.07;;;24.23;;
39208;SDS011;24929;51.982;4.664;2022-12-10T03:14:07;69.75;;;23.17;;
39208;SDS011;24929;51.982;4.664;2022-12-10T03:16:45;71.00;;;24.63;;
39208;SDS011;24929;51.982;4.664;2022-12-10T03:19:17;80.88;;;26.67;;
39208;SDS011;24929;51.982;4.664;2022-12-10T03:21:45;90.38;;;27.50;;
39208;SDS011;24929;51.982;4.664;2022-12-10T03:24:13;68.15;;;23.83;;
39208;SDS011;24929;51.982;4.664;2022-12-10T03:26:40;76.35;;;23.95;;
39208;SDS011;24929;51.982;4.664;2022-12-10T03:29:08;83.40;;;24.42;;
39208;SDS011;24929;51.982;4.664;2022-12-10T03:31:37;63.83;;;23.58;;
39208;SDS011;24929;51.982;4.664;2022-12-10T03:34:04;95.15;;;25.92;;
39208;SDS011;24929;51.982;4.664;2022-12-10T03:36:30;77.53;;;21.48;;
39208;SDS011;24929;51.982;4.664;2022-12-10T03:38:56;81.03;;;22.90;;
39208;SDS011;24929;51.982;4.664;2022-12-10T03:41:23;58.65;;;18.23;;
39208;SDS011;24929;51.982;4.664;2022-12-10T03:43:49;56.55;;;19.88;;
39208;SDS011;24929;51.982;4.664;2022-12-10T03:46:19;68.53;;;22.25;;
39208;SDS011;24929;51.982;4.664;2022-12-10T03:48:45;54.40;;;20.00;;
39208;SDS011;24929;51.982;4.664;2022-12-10T03:51:11;84.60;;;23.38;;
39208;SDS011;24929;51.982;4.664;2022-12-10T03:53:36;83.30;;;21.33;;
39208;SDS011;24929;51.982;4.664;2022-12-10T03:56:02;73.90;;;19.67;;
39208;SDS011;24929;51.982;4.664;2022-12-10T03:58:27;82.05;;;22.65;;
39208;SDS011;24929;51.982;4.664;2022-12-10T04:00:52;80.47;;;23.23;;
39208;SDS011;24929;51.982;4.664;2022-12-10T04:03:18;116.55;;;23.30;;
39208;SDS011;24929;51.982;4.664;2022-12-10T04:05:43;51.85;;;21.13;;
39208;SDS011;24929;51.982;4.664;2022-12-10T04:08:08;89.75;;;24.65;;
39208;SDS011;24929;51.982;4.664;2022-12-10T04:10:35;120.32;;;24.17;;
39208;SDS011;24929;51.982;4.664;2022-12-10T04:13:01;74.90;;;22.10;;
39208;SDS011;24929;51.982;4.664;2022-12-10T04:15:45;97.53;;;21.63;;
39208;SDS011;24929;51.982;4.664;2022-12-10T04:18:29;83.18;;;23.42;;
39208;SDS011;24929;51.982;4.664;2022-12-10T04:20:54;78.35;;;20.40;;
39208;SDS011;24929;51.982;4.664;2022-12-10T04:23:38;73.80;;;22.63;;
39208;SDS011;24929;51.982;4.664;2022-12-10T04:26:22;58.53;;;22.25;;
39208;SDS011;24929;51.982;4.664;2022-12-10T04:29:06;59.28;;;23.55;;
39208;SDS011;24929;51.982;4.664;2022-12-10T04:31:32;52.15;;;21.65;;
39208;SDS011;24929;51.982;4.664;2022-12-10T04:33:58;71.85;;;20.58;;
39208;SDS011;24929;51.982;4.664;2022-12-10T04:36:23;48.15;;;20.60;;
39208;SDS011;24929;51.982;4.664;2022-12-10T04:38:48;53.05;;;20.40;;
39208;SDS011;24929;51.982;4.664;2022-12-10T04:41:14;89.95;;;22.52;;
39208;SDS011;24929;51.982;4.664;2022-12-10T04:43:40;51.80;;;21.50;;
39208;SDS011;24929;51.982;4.664;2022-12-10T04:46:06;49.88;;;21.08;;
39208;SDS011;24929;51.982;4.664;2022-12-10T04:48:31;54.75;;;21.27;;
39208;SDS011;24929;51.982;4.664;2022-12-10T04:50:57;53.83;;;20.67;;
39208;SDS011;24929;51.982;4.664;2022-12-10T04:53:22;65.20;;;22.05;;
39208;SDS011;24929;51.982;4.664;2022-12-10T04:55:48;45.58;;;21.80;;
39208;SDS011;24929;51.982;4.664;2022-12-10T04:58:13;65.28;;;21.50;;
39208;SDS011;24929;51.982;4.664;2022-12-10T05:00:40;53.22;;;20.92;;
39208;SDS011;24929;51.982;4.664;2022-12-10T05:03:05;46.55;;;20.65;;
39208;SDS011;24929;51.982;4.664;2022-12-10T05:05:30;60.78;;;21.63;;
39208;SDS011;24929;51.982;4.664;2022-12-10T05:07:59;80.15;;;22.83;;
39208;SDS011;24929;51.982;4.664;2022-12-10T05:10:24;44.35;;;19.52;;
39208;SDS011;24929;51.982;4.664;2022-12-10T05:12:50;53.35;;;21.10;;
39208;SDS011;24929;51.982;4.664;2022-12-10T05:15:15;54.70;;;21.42;;
39208;SDS011;24929;51.982;4.664;2022-12-10T05:17:40;76.20;;;21.60;;
39208;SDS011;24929;51.982;4.664;2022-12-10T05:20:06;71.88;;;23.90;;
39208;SDS011;24929;51.982;4.664;2022-12-10T05:22:32;67.88;;;20.70;;
39208;SDS011;24929;51.982;4.664;2022-12-10T05:25:16;61.67;;;22.38;;
39208;SDS011;24929;51.982;4.664;2022-12-10T05:27:42;35.72;;;20.48;;
39208;SDS011;24929;51.982;4.664;2022-12-10T05:30:07;40.22;;;21.60;;
39208;SDS011;24929;51.982;4.664;2022-12-10T05:32:34;54.85;;;20.17;;
39208;SDS011;24929;51.982;4.664;2022-12-10T05:35:00;34.60;;;19.08;;
39208;SDS011;24929;51.982;4.664;2022-12-10T05:37:25;55.22;;;22.35;;
39208;SDS011;24929;51.982;4.664;2022-12-10T05:39:50;44.13;;;21.40;;
39208;SDS011;24929;51.982;4.664;2022-12-10T05:42:16;49.28;;;22.25;;
39208;SDS011;24929;51.982;4.664;2022-12-10T05:44:41;33.53;;;20.00;;
39208;SDS011;24929;51.982;4.664;2022-12-10T05:47:06;34.75;;;17.95;;
39208;SDS011;24929;51.982;4.664;2022-12-10T05:49:32;55.33;;;22.35;;
39208;SDS011;24929;51.982;4.664;2022-12-10T05:51:57;40.58;;;20.95;;
39208;SDS011;24929;51.982;4.664;2022-12-10T05:54:22;63.50;;;22.23;;
39208;SDS011;24929;51.982;4.664;2022-12-10T05:56:48;63.03;;;19.33;;
39208;SDS011;24929;51.982;4.664;2022-12-10T05:59:13;51.53;;;18.20;;
39208;SDS011;24929;51.982;4.664;2022-12-10T06:01:38;48.20;;;19.02;;
39208;SDS011;24929;51.982;4.664;2022-12-10T06:04:04;64.82;;;21.40;;
39208;SDS011;24929;51.982;4.664;2022-12-10T06:06:31;44.55;;;20.10;;
39208;SDS011;24929;51.982;4.664;2022-12-10T06:08:59;36.38;;;19.88;;
39208;SDS011;24929;51.982;4.664;2022-12-10T06:11:25;30.55;;;18.05;;
39208;SDS011;24929;51.982;4.664;2022-12-10T06:13:52;36.72;;;20.63;;
39208;SDS011;24929;51.982;4.664;2022-12-10T06:16:20;28.77;;;18.58;;
39208;SDS011;24929;51.982;4.664;2022-12-10T06:18:45;53.00;;;20.30;;
39208;SDS011;24929;51.982;4.664;2022-12-10T06:21:12;35.58;;;20.02;;
39208;SDS011;24929;51.982;4.664;2022-12-10T06:23:39;53.63;;;20.08;;
39208;SDS011;24929;51.982;4.664;2022-12-10T06:26:06;65.57;;;22.25;;
39208;SDS011;24929;51.982;4.664;2022-12-10T06:28:44;45.17;;;20.02;;
39208;SDS011;24929;51.982;4.664;2022-12-10T06:31:10;66.30;;;20.83;;
39208;SDS011;24929;51.982;4.664;2022-12-10T06:33:36;62.70;;;19.42;;
39208;SDS011;24929;51.982;4.664;2022-12-10T06:36:05;42.75;;;21.15;;
39208;SDS011;24929;51.982;4.664;2022-12-10T06:38:31;43.90;;;21.55;;
39208;SDS011;24929;51.982;4.664;2022-12-10T06:40:57;53.67;;;19.17;;
39208;SDS011;24929;51.982;4.664;2022-12-10T06:43:23;36.80;;;21.27;;
39208;SDS011;24929;51.982;4.664;2022-12-10T06:45:48;33.38;;;19.80;;
39208;SDS011;24929;51.982;4.664;2022-12-10T06:48:14;56.50;;;19.08;;
39208;SDS011;24929;51.982;4.664;2022-12-10T06:50:39;36.35;;;20.65;;
39208;SDS011;24929;51.982;4.664;2022-12-10T06:53:06;40.97;;;19.30;;
39208;SDS011;24929;51.982;4.664;2022-12-10T06:55:31;38.55;;;20.42;;
39208;SDS011;24929;51.982;4.664;2022-12-10T06:57:56;42.67;;;20.10;;
39208;SDS011;24929;51.982;4.664;2022-12-10T07:00:22;43.00;;;19.92;;
39208;SDS011;24929;51.982;4.664;2022-12-10T07:02:49;51.72;;;21.80;;
39208;SDS011;24929;51.982;4.664;2022-12-10T07:05:14;38.33;;;19.63;;
39208;SDS011;24929;51.982;4.664;2022-12-10T07:07:40;47.45;;;21.30;;
39208;SDS011;24929;51.982;4.664;2022-12-10T07:10:06;38.20;;;21.13;;
39208;SDS011;24929;51.982;4.664;2022-12-10T07:12:32;36.78;;;21.52;;
39208;SDS011;24929;51.982;4.664;2022-12-10T07:14:57;44.22;;;22.23;;
39208;SDS011;24929;51.982;4.664;2022-12-10T07:17:23;55.75;;;19.35;;
39208;SDS011;24929;51.982;4.664;2022-12-10T07:19:48;47.03;;;20.17;;
39208;SDS011;24929;51.982;4.664;2022-12-10T07:22:14;39.05;;;19.13;;
39208;SDS011;24929;51.982;4.664;2022-12-10T07:24:39;42.55;;;18.58;;
39208;SDS011;24929;51.982;4.664;2022-12-10T07:27:05;49.67;;;20.50;;
39208;SDS011;24929;51.982;4.664;2022-12-10T07:29:31;31.60;;;20.08;;
39208;SDS011;24929;51.982;4.664;2022-12-10T07:31:57;61.75;;;21.95;;
39208;SDS011;24929;51.982;4.664;2022-12-10T07:34:22;39.28;;;20.38;;
39208;SDS011;24929;51.982;4.664;2022-12-10T07:36:48;51.60;;;20.13;;
39208;SDS011;24929;51.982;4.664;2022-12-10T07:39:13;49.47;;;20.05;;
39208;SDS011;24929;51.982;4.664;2022-12-10T07:41:47;53.47;;;20.98;;
39208;SDS011;24929;51.982;4.664;2022-12-10T07:44:22;38.67;;;19.45;;
39208;SDS011;24929;51.982;4.664;2022-12-10T07:46:50;43.65;;;19.70;;
39208;SDS011;24929;51.982;4.664;2022-12-10T07:49:16;30.23;;;18.15;;
39208;SDS011;24929;51.982;4.664;2022-12-10T07:51:45;33.88;;;19.60;;
39208;SDS011;24929;51.982;4.664;2022-12-10T07:54:12;68.65;;;22.88;;
39208;SDS011;24929;51.982;4.664;2022-12-10T07:56:38;39.13;;;19.95;;
39208;SDS011;24929;51.982;4.664;2022-12-10T07:59:03;41.28;;;19.60;;
39208;SDS011;24929;51.982;4.664;2022-12-10T08:07:41;36.40;;;19.10;;
39208;SDS011;24929;51.982;4.664;2022-12-10T08:10:07;38.20;;;19.13;;
39208;SDS011;24929;51.982;4.664;2022-12-10T08:12:35;45.95;;;17.85;;
39208;SDS011;24929;51.982;4.664;2022-12-10T08:15:00;38.10;;;17.60;;
39208;SDS011;24929;51.982;4.664;2022-12-10T08:17:27;37.80;;;18.90;;
39208;SDS011;24929;51.982;4.664;2022-12-10T08:19:52;41.75;;;20.25;;
39208;SDS011;24929;51.982;4.664;2022-12-10T08:22:19;43.28;;;21.25;;
39208;SDS011;24929;51.982;4.664;2022-12-10T08:28:06;38.80;;;19.85;;
39208;SDS011;24929;51.982;4.664;2022-12-10T08:30:34;32.58;;;17.83;;
39208;SDS011;24929;51.982;4.664;2022-12-10T08:32:59;38.30;;;19.83;;
39208;SDS011;24929;51.982;4.664;2022-12-10T08:35:24;46.55;;;19.27;;
39208;SDS011;24929;51.982;4.664;2022-12-10T08:37:50;46.05;;;19.17;;
39208;SDS011;24929;51.982;4.664;2022-12-10T08:40:16;59.83;;;18.38;;
39208;SDS011;24929;51.982;4.664;2022-12-10T08:42:41;40.58;;;17.90;;
39208;SDS011;24929;51.982;4.664;2022-12-10T08:45:07;38.15;;;18.55;;
39208;SDS011;24929;51.982;4.664;2022-12-10T08:47:33;80.82;;;19.75;;
39208;SDS011;24929;51.982;4.664;2022-12-10T08:49:58;35.15;;;17.95;;
39208;SDS011;24929;51.982;4.664;2022-12-10T08:52:23;48.97;;;22.02;;
39208;SDS011;24929;51.982;4.664;2022-12-10T08:57:39;41.90;;;18.73;;
39208;SDS011;24929;51.982;4.664;2022-12-10T09:00:05;60.72;;;20.27;;
39208;SDS011;24929;51.982;4.664;2022-12-10T09:02:31;32.72;;;17.73;;
39208;SDS011;24929;51.982;4.664;2022-12-10T09:04:57;41.03;;;20.52;;
39208;SDS011;24929;51.982;4.664;2022-12-10T09:07:22;46.50;;;21.98;;
39208;SDS011;24929;51.982;4.664;2022-12-10T09:09:48;32.63;;;17.25;;
39208;SDS011;24929;51.982;4.664;2022-12-10T09:12:13;47.10;;;23.55;;
39208;SDS011;24929;51.982;4.664;2022-12-10T09:14:38;41.17;;;22.75;;
39208;SDS011;24929;51.982;4.664;2022-12-10T09:17:05;37.05;;;18.92;;
39208;SDS011;24929;51.982;4.664;2022-12-10T09:19:31;40.22;;;20.52;;
39208;SDS011;24929;51.982;4.664;2022-12-10T09:21:56;27.40;;;15.50;;
39208;SDS011;24929;51.982;4.664;2022-12-10T09:24:22;58.42;;;19.05;;
39208;SDS011;24929;51.982;4.664;2022-12-10T09:26:47;45.70;;;20.77;;
39208;SDS011;24929;51.982;4.664;2022-12-10T09:29:13;58.42;;;20.85;;
39208;SDS011;24929;51.982;4.664;2022-12-10T09:31:38;52.78;;;19.48;;
39208;SDS011;24929;51.982;4.664;2022-12-10T09:34:04;39.38;;;19.90;;
39208;SDS011;24929;51.982;4.664;2022-12-10T09:36:29;47.28;;;21.08;;
39208;SDS011;24929;51.982;4.664;2022-12-10T09:38:55;37.65;;;19.77;;
39208;SDS011;24929;51.982;4.664;2022-12-10T09:41:27;33.50;;;18.83;;
39208;SDS011;24929;51.982;4.664;2022-12-10T09:47:04;34.78;;;20.38;;
39208;SDS011;24929;51.982;4.664;2022-12-10T09:52:05;49.45;;;20.35;;
39208;SDS011;24929;51.982;4.664;2022-12-10T09:54:38;43.35;;;21.73;;
39208;SDS011;24929;51.982;4.664;2022-12-10T09:57:20;47.58;;;21.83;;
39208;SDS011;24929;51.982;4.664;2022-12-10T09:59:52;41.13;;;20.52;;
39208;SDS011;24929;51.982;4.664;2022-12-10T10:02:25;37.38;;;20.58;;
39208;SDS011;24929;51.982;4.664;2022-12-10T10:07:52;58.97;;;20.42;;
39208;SDS011;24929;51.982;4.664;2022-12-10T10:12:58;43.58;;;20.38;;
39208;SDS011;24929;51.982;4.664;2022-12-10T10:15:36;33.78;;;17.95;;
39208;SDS011;24929;51.982;4.664;2022-12-10T10:20:54;40.33;;;20.15;;
39208;SDS011;24929;51.982;4.664;2022-12-10T10:23:20;42.63;;;22.98;;
39208;SDS011;24929;51.982;4.664;2022-12-10T10:25:46;41.00;;;22.88;;
39208;SDS011;24929;51.982;4.664;2022-12-10T10:28:12;41.30;;;21.75;;
39208;SDS011;24929;51.982;4.664;2022-12-10T10:30:48;45.58;;;24.48;;
39208;SDS011;24929;51.982;4.664;2022-12-10T10:33:16;46.80;;;22.33;;
39208;SDS011;24929;51.982;4.664;2022-12-10T10:35:46;43.40;;;23.67;;
39208;SDS011;24929;51.982;4.664;2022-12-10T10:38:25;44.40;;;21.23;;
39208;SDS011;24929;51.982;4.664;2022-12-10T10:40:56;52.38;;;22.05;;
39208;SDS011;24929;51.982;4.664;2022-12-10T10:43:28;47.22;;;22.88;;
39208;SDS011;24929;51.982;4.664;2022-12-10T10:49:24;47.00;;;24.10;;
39208;SDS011;24929;51.982;4.664;2022-12-10T10:51:52;39.88;;;18.88;;
39208;SDS011;24929;51.982;4.664;2022-12-10T10:57:06;44.25;;;23.05;;
39208;SDS011;24929;51.982;4.664;2022-12-10T10:59:38;59.92;;;27.17;;
39208;SDS011;24929;51.982;4.664;2022-12-10T11:05:26;69.93;;;27.88;;
39208;SDS011;24929;51.982;4.664;2022-12-10T11:07:59;59.92;;;28.20;;
39208;SDS011;24929;51.982;4.664;2022-12-10T11:10:26;66.03;;;30.90;;
39208;SDS011;24929;51.982;4.664;2022-12-10T11:13:04;58.72;;;30.52;;
39208;SDS011;24929;51.982;4.664;2022-12-10T11:15:42;75.70;;;30.67;;
39208;SDS011;24929;51.982;4.664;2022-12-10T11:23:41;50.88;;;23.85;;
39208;SDS011;24929;51.982;4.664;2022-12-10T11:37:18;60.30;;;28.77;;
39208;SDS011;24929;51.982;4.664;2022-12-10T11:45:20;67.07;;;30.65;;
39208;SDS011;24929;51.982;4.664;2022-12-10T11:50:48;61.05;;;26.30;;
39208;SDS011;24929;51.982;4.664;2022-12-10T12:09:38;64.03;;;27.38;;
39208;SDS011;24929;51.982;4.664;2022-12-10T12:14:40;57.05;;;26.85;;
39208;SDS011;24929;51.982;4.664;2022-12-10T12:17:32;63.40;;;29.42;;
39208;SDS011;24929;51.982;4.664;2022-12-10T12:22:42;59.20;;;25.92;;
39208;SDS011;24929;51.982;4.664;2022-12-10T12:25:32;75.07;;;32.13;;
39208;SDS011;24929;51.982;4.664;2022-12-10T12:28:20;58.90;;;28.33;;
39208;SDS011;24929;51.982;4.664;2022-12-10T12:30:57;61.63;;;28.88;;
39208;SDS011;24929;51.982;4.664;2022-12-10T12:36:14;49.75;;;26.33;;
39208;SDS011;24929;51.982;4.664;2022-12-10T12:41:17;60.13;;;28.20;;
39208;SDS011;24929;51.982;4.664;2022-12-10T12:43:52;69.75;;;29.95;;
39208;SDS011;24929;51.982;4.664;2022-12-10T12:46:39;73.22;;;29.45;;
39208;SDS011;24929;51.982;4.664;2022-12-10T12:51:45;53.97;;;27.27;;
39208;SDS011;24929;51.982;4.664;2022-12-10T12:54:16;74.80;;;30.35;;
39208;SDS011;24929;51.982;4.664;2022-12-10T13:02:39;59.85;;;26.67;;
39208;SDS011;24929;51.982;4.664;2022-12-10T13:05:51;50.67;;;24.90;;
39208;SDS011;24929;51.982;4.664;2022-12-10T13:10:51;59.97;;;29.50;;
39208;SDS011;24929;51.982;4.664;2022-12-10T13:13:39;57.22;;;27.88;;
39208;SDS011;24929;51.982;4.664;2022-12-10T13:24:18;57.53;;;28.42;;
39208;SDS011;24929;51.982;4.664;2022-12-10T13:27:05;39.88;;;22.77;;
39208;SDS011;24929;51.982;4.664;2022-12-10T13:42:33;42.33;;;24.27;;
39208;SDS011;24929;51.982;4.664;2022-12-10T13:47:52;40.92;;;22.95;;
39208;SDS011;24929;51.982;4.664;2022-12-10T13:53:08;47.40;;;22.85;;
39208;SDS011;24929;51.982;4.664;2022-12-10T14:01:16;49.63;;;26.35;;
39208;SDS011;24929;51.982;4.664;2022-12-10T14:06:32;40.63;;;20.92;;
39208;SDS011;24929;51.982;4.664;2022-12-10T14:12:01;49.10;;;24.55;;
39208;SDS011;24929;51.982;4.664;2022-12-10T14:16:59;46.05;;;25.95;;
39208;SDS011;24929;51.982;4.664;2022-12-10T14:19:30;38.40;;;23.83;;
39208;SDS011;24929;51.982;4.664;2022-12-10T14:21:55;46.97;;;25.35;;
39208;SDS011;24929;51.982;4.664;2022-12-10T14:24:26;46.47;;;23.67;;
39208;SDS011;24929;51.982;4.664;2022-12-10T14:26:57;49.60;;;26.73;;
39208;SDS011;24929;51.982;4.664;2022-12-10T14:29:26;47.35;;;22.55;;
39208;SDS011;24929;51.982;4.664;2022-12-10T14:31:52;41.83;;;22.85;;
39208;SDS011;24929;51.982;4.664;2022-12-10T14:34:18;33.55;;;17.20;;
39208;SDS011;24929;51.982;4.664;2022-12-10T14:36:53;42.78;;;19.73;;
39208;SDS011;24929;51.982;4.664;2022-12-10T14:39:21;37.83;;;19.45;;
39208;SDS011;24929;51.982;4.664;2022-12-10T14:41:52;50.03;;;25.70;;
39208;SDS011;24929;51.982;4.664;2022-12-10T14:44:20;52.55;;;25.02;;
39208;SDS011;24929;51.982;4.664;2022-12-10T14:46:47;45.47;;;24.45;;
39208;SDS011;24929;51.982;4.664;2022-12-10T14:49:19;43.22;;;24.42;;
39208;SDS011;24929;51.982;4.664;2022-12-10T14:51:51;47.75;;;23.00;;
39208;SDS011;24929;51.982;4.664;2022-12-10T14:56:54;55.88;;;24.40;;
39208;SDS011;24929;51.982;4.664;2022-12-10T14:59:25;52.85;;;24.00;;
39208;SDS011;24929;51.982;4.664;2022-12-10T15:01:58;43.63;;;24.70;;
39208;SDS011;24929;51.982;4.664;2022-12-10T15:04:28;48.60;;;25.33;;
39208;SDS011;24929;51.982;4.664;2022-12-10T15:07:05;51.65;;;25.27;;
39208;SDS011;24929;51.982;4.664;2022-12-10T15:09:32;59.13;;;26.42;;
39208;SDS011;24929;51.982;4.664;2022-12-10T15:11:58;54.40;;;25.48;;
39208;SDS011;24929;51.982;4.664;2022-12-10T15:14:25;45.95;;;25.75;;
39208;SDS011;24929;51.982;4.664;2022-12-10T15:16:52;53.72;;;26.63;;
39208;SDS011;24929;51.982;4.664;2022-12-10T15:19:22;52.80;;;27.13;;
39208;SDS011;24929;51.982;4.664;2022-12-10T15:21:50;57.03;;;27.02;;
39208;SDS011;24929;51.982;4.664;2022-12-10T15:24:59;48.70;;;26.77;;
39208;SDS011;24929;51.982;4.664;2022-12-10T15:27:51;59.95;;;27.83;;
39208;SDS011;24929;51.982;4.664;2022-12-10T15:30:00;54.05;;;25.90;;
39208;SDS011;24929;51.982;4.664;2022-12-10T15:32:49;47.40;;;23.17;;
39208;SDS011;24929;51.982;4.664;2022-12-10T15:35:14;52.50;;;27.73;;
39208;SDS011;24929;51.982;4.664;2022-12-10T15:37:40;64.90;;;27.55;;
39208;SDS011;24929;51.982;4.664;2022-12-10T15:40:19;47.92;;;26.63;;
39208;SDS011;24929;51.982;4.664;2022-12-10T15:43:22;51.58;;;26.00;;
39208;SDS011;24929;51.982;4.664;2022-12-10T15:45:48;55.58;;;26.80;;
39208;SDS011;24929;51.982;4.664;2022-12-10T15:48:14;54.55;;;28.35;;
39208;SDS011;24929;51.982;4.664;2022-12-10T15:50:40;59.88;;;27.02;;
39208;SDS011;24929;51.982;4.664;2022-12-10T15:53:21;62.47;;;26.85;;
39208;SDS011;24929;51.982;4.664;2022-12-10T15:58:16;65.70;;;27.77;;
39208;SDS011;24929;51.982;4.664;2022-12-10T16:00:41;63.78;;;28.27;;
39208;SDS011;24929;51.982;4.664;2022-12-10T16:03:15;60.70;;;28.25;;
39208;SDS011;24929;51.982;4.664;2022-12-10T16:05:43;55.55;;;28.17;;
39208;SDS011;24929;51.982;4.664;2022-12-10T16:08:24;55.50;;;29.42;;
39208;SDS011;24929;51.982;4.664;2022-12-10T16:11:00;73.57;;;32.28;;
39208;SDS011;24929;51.982;4.664;2022-12-10T16:13:31;65.00;;;28.42;;
39208;SDS011;24929;51.982;4.664;2022-12-10T16:16:05;66.63;;;28.05;;
39208;SDS011;24929;51.982;4.664;2022-12-10T16:18:33;47.83;;;27.88;;
39208;SDS011;24929;51.982;4.664;2022-12-10T16:21:01;60.38;;;26.90;;
39208;SDS011;24929;51.982;4.664;2022-12-10T16:23:27;64.50;;;30.95;;
39208;SDS011;24929;51.982;4.664;2022-12-10T16:25:52;57.42;;;30.80;;
39208;SDS011;24929;51.982;4.664;2022-12-10T16:28:19;62.60;;;28.83;;
39208;SDS011;24929;51.982;4.664;2022-12-10T16:30:49;57.85;;;29.23;;
39208;SDS011;24929;51.982;4.664;2022-12-10T16:33:17;61.97;;;29.40;;
39208;SDS011;24929;51.982;4.664;2022-12-10T16:35:44;66.00;;;29.80;;
39208;SDS011;24929;51.982;4.664;2022-12-10T16:38:11;73.68;;;28.83;;
39208;SDS011;24929;51.982;4.664;2022-12-10T16:40:37;67.63;;;31.33;;
39208;SDS011;24929;51.982;4.664;2022-12-10T16:43:03;55.70;;;30.33;;
39208;SDS011;24929;51.982;4.664;2022-12-10T16:45:31;61.97;;;29.58;;
39208;SDS011;24929;51.982;4.664;2022-12-10T16:48:00;61.55;;;30.33;;
39208;SDS011;24929;51.982;4.664;2022-12-10T16:50:26;59.20;;;29.13;;
39208;SDS011;24929;51.982;4.664;2022-12-10T16:52:51;60.58;;;29.85;;
39208;SDS011;24929;51.982;4.664;2022-12-10T16:55:19;62.97;;;31.30;;
39208;SDS011;24929;51.982;4.664;2022-12-10T16:57:47;53.15;;;29.02;;
39208;SDS011;24929;51.982;4.664;2022-12-10T17:00:14;65.75;;;31.05;;
39208;SDS011;24929;51.982;4.664;2022-12-10T17:02:41;59.42;;;30.55;;
39208;SDS011;24929;51.982;4.664;2022-12-10T17:08:05;77.30;;;33.38;;
39208;SDS011;24929;51.982;4.664;2022-12-10T17:10:31;63.60;;;30.65;;
39208;SDS011;24929;51.982;4.664;2022-12-10T17:13:15;66.43;;;29.77;;
39208;SDS011;24929;51.982;4.664;2022-12-10T17:15:41;58.15;;;30.98;;